sensor_id;sensor_type;location;lat;lon;timestamp;pressure;altitude;pressure_sealevel;temperature;humidity
12209;BME280;6167;43.080;25.634;2023-08-01T15:49:01;98660.41;;;32.87;45.81
12209;BME280;6167;43.080;25.634;2023-08-01T15:51:30;98658.69;;;32.44;46.22
12209;BME280;6167;43.080;25.634;2023-08-01T15:53:57;98646.81;;;32.51;46.26
12209;BME280;6167;43.080;25.634;2023-08-01T15:56:25;98657.19;;;32.30;46.83
12209;BME280;6167;43.080;25.634;2023-08-01T15:58:51;98641.84;;;32.29;46.63
12209;BME280;6167;43.080;25.634;2023-08-01T16:01:18;98644.34;;;32.13;47.56
12209;BME280;6167;43.080;25.634;2023-08-01T16:03:46;98663.19;;;32.39;46.37
12209;BME280;6167;43.080;25.634;2023-08-01T16:06:14;98659.66;;;32.50;47.35
12209;BME280;6167;43.080;25.634;2023-08-01T16:08:41;98665.66;;;32.59;47.47
12209;BME280;6167;43.080;25.634;2023-08-01T16:11:09;98659.47;;;32.63;47.13
12209;BME280;6167;43.080;25.634;2023-08-01T16:13:37;98663.88;;;32.64;48.43
12209;BME280;6167;43.080;25.634;2023-08-01T16:16:04;98649.75;;;32.37;48.98
12209;BME280;6167;43.080;25.634;2023-08-01T16:18:32;98654.19;;;32.50;47.90
12209;BME280;6167;43.080;25.634;2023-08-01T16:20:59;98657.97;;;32.37;48.23
12209;BME280;6167;43.080;25.634;2023-08-01T16:23:28;98663.28;;;32.32;48.06
12209;BME280;6167;43.080;25.634;2023-08-01T16:25:58;98657.50;;;32.22;48.03
12209;BME280;6167;43.080;25.634;2023-08-01T16:28:27;98643.94;;;31.79;48.94
12209;BME280;6167;43.080;25.634;2023-08-01T16:30:56;98640.97;;;31.99;48.32
12209;BME280;6167;43.080;25.634;2023-08-01T16:33:32;98642.34;;;31.65;49.74
12209;BME280;6167;43.080;25.634;2023-08-01T16:36:00;98649.13;;;31.81;48.56
12209;BME280;6167;43.080;25.634;2023-08-01T16:38:28;98654.09;;;31.47;50.15
12209;BME280;6167;43.080;25.634;2023-08-01T16:40:57;98662.50;;;31.70;49.78
12209;BME280;6167;43.080;25.634;2023-08-01T16:43:24;98655.69;;;31.80;49.69
12209;BME280;6167;43.080;25.634;2023-08-01T16:45:51;98658.03;;;31.76;50.21
12209;BME280;6167;43.080;25.634;2023-08-01T16:48:17;98647.78;;;31.71;50.21
12209;BME280;6167;43.080;25.634;2023-08-01T16:50:45;98662.56;;;31.82;49.93
12209;BME280;6167;43.080;25.634;2023-08-01T16:53:12;98661.38;;;31.53;51.48
12209;BME280;6167;43.080;25.634;2023-08-01T16:55:41;98653.50;;;31.63;50.69
12209;BME280;6167;43.080;25.634;2023-08-01T16:58:08;98659.34;;;31.24;51.91
12209;BME280;6167;43.080;25.634;2023-08-01T17:00:38;98664.25;;;31.15;52.45
12209;BME280;6167;43.080;25.634;2023-08-01T17:03:07;98664.38;;;30.95;55.10
12209;BME280;6167;43.080;25.634;2023-08-01T17:05:42;98673.78;;;30.99;54.58
12209;BME280;6167;43.080;25.634;2023-08-01T17:08:09;98665.22;;;30.96;53.84
12209;BME280;6167;43.080;25.634;2023-08-01T17:10:40;98663.28;;;30.71;55.26
12209;BME280;6167;43.080;25.634;2023-08-01T17:13:08;98657.09;;;30.51;56.53
12209;BME280;6167;43.080;25.634;2023-08-01T17:15:35;98653.97;;;30.41;56.39
12209;BME280;6167;43.080;25.634;2023-08-01T17:18:02;98670.63;;;30.26;57.68
12209;BME280;6167;43.080;25.634;2023-08-01T17:20:29;98674.50;;;30.50;59.64
12209;BME280;6167;43.080;25.634;2023-08-01T17:23:01;98672.09;;;30.29;60.03
12209;BME280;6167;43.080;25.634;2023-08-01T17:25:28;98675.59;;;30.36;60.74
12209;BME280;6167;43.080;25.634;2023-08-01T17:27:58;98663.47;;;30.32;61.19
12209;BME280;6167;43.080;25.634;2023-08-01T17:30:25;98665.03;;;30.08;66.19
12209;BME280;6167;43.080;25.634;2023-08-01T17:32:57;98657.50;;;30.10;64.58
12209;BME280;6167;43.080;25.634;2023-08-01T17:35:24;98668.44;;;29.84;66.78
12209;BME280;6167;43.080;25.634;2023-08-01T17:37:53;98667.81;;;29.82;68.65
12209;BME280;6167;43.080;25.634;2023-08-01T17:40:22;98663.25;;;29.56;76.05
12209;BME280;6167;43.080;25.634;2023-08-01T17:42:51;98679.56;;;29.36;76.17
12209;BME280;6167;43.080;25.634;2023-08-01T17:45:24;98679.78;;;29.54;76.92
12209;BME280;6167;43.080;25.634;2023-08-01T17:47:53;98675.59;;;29.32;84.10
12209;BME280;6167;43.080;25.634;2023-08-01T17:50:20;98678.56;;;29.44;82.93
12209;BME280;6167;43.080;25.634;2023-08-01T17:52:49;98681.88;;;29.32;83.73
12209;BME280;6167;43.080;25.634;2023-08-01T17:55:16;98696.53;;;29.12;84.50
12209;BME280;6167;43.080;25.634;2023-08-01T17:57:45;98696.75;;;29.23;82.75
12209;BME280;6167;43.080;25.634;2023-08-01T18:00:13;98678.47;;;28.78;87.52
12209;BME280;6167;43.080;25.634;2023-08-01T18:02:46;98697.38;;;28.99;89.46
12209;BME280;6167;43.080;25.634;2023-08-01T18:05:13;98684.94;;;28.77;95.65
12209;BME280;6167;43.080;25.634;2023-08-01T18:07:40;98708.13;;;28.59;98.09
12209;BME280;6167;43.080;25.634;2023-08-01T18:10:07;98701.25;;;28.70;98.64
12209;BME280;6167;43.080;25.634;2023-08-01T18:12:36;98705.78;;;28.50;92.44
12209;BME280;6167;43.080;25.634;2023-08-01T18:15:04;98712.53;;;28.60;95.34
12209;BME280;6167;43.080;25.634;2023-08-01T18:17:31;98709.50;;;28.35;96.24
12209;BME280;6167;43.080;25.634;2023-08-01T18:20:01;98718.78;;;28.13;98.97
12209;BME280;6167;43.080;25.634;2023-08-01T18:22:31;98714.09;;;28.35;99.64
12209;BME280;6167;43.080;25.634;2023-08-01T18:27:54;98733.47;;;27.91;100.00
12209;BME280;6167;43.080;25.634;2023-08-01T18:30:28;98723.25;;;27.93;100.00
12209;BME280;6167;43.080;25.634;2023-08-01T18:32:57;98718.38;;;27.54;100.00
12209;BME280;6167;43.080;25.634;2023-08-01T18:35:29;98742.72;;;27.41;100.00
12209;BME280;6167;43.080;25.634;2023-08-01T18:37:56;98739.28;;;27.32;100.00
12209;BME280;6167;43.080;25.634;2023-08-01T18:40:25;98723.66;;;27.34;100.00
12209;BME280;6167;43.080;25.634;2023-08-01T18:42:56;98737.59;;;27.31;100.00
12209;BME280;6167;43.080;25.634;2023-08-01T18:45:26;98734.31;;;27.14;100.00
12209;BME280;6167;43.080;25.634;2023-08-01T18:47:57;98718.69;;;27.16;100.00
12209;BME280;6167;43.080;25.634;2023-08-01T18:50:31;98744.06;;;27.09;100.00
12209;BME280;6167;43.080;25.634;2023-08-01T18:53:02;98740.41;;;26.95;100.00
12209;BME280;6167;43.080;25.634;2023-08-01T18:55:41;98738.47;;;27.10;100.00
12209;BME280;6167;43.080;25.634;2023-08-01T18:58:24;98733.84;;;26.89;100.00
12209;BME280;6167;43.080;25.634;2023-08-01T19:01:14;98748.09;;;26.77;100.00
12209;BME280;6167;43.080;25.634;2023-08-01T19:03:47;98756.19;;;26.91;100.00
12209;BME280;6167;43.080;25.634;2023-08-01T19:06:33;98740.81;;;26.77;100.00
12209;BME280;6167;43.080;25.634;2023-08-01T19:09:31;98746.47;;;26.82;100.00
12209;BME280;6167;43.080;25.634;2023-08-01T19:12:23;98738.59;;;26.87;100.00
12209;BME280;6167;43.080;25.634;2023-08-01T19:14:51;98751.06;;;26.82;100.00
12209;BME280;6167;43.080;25.634;2023-08-01T19:17:50;98757.31;;;26.82;100.00
12209;BME280;6167;43.080;25.634;2023-08-01T19:20:19;98749.31;;;26.74;100.00
12209;BME280;6167;43.080;25.634;2023-08-01T19:23:25;98746.19;;;26.41;100.00
12209;BME280;6167;43.080;25.634;2023-08-01T19:25:52;98754.09;;;26.36;100.00
12209;BME280;6167;43.080;25.634;2023-08-01T19:28:26;98756.19;;;26.55;100.00
12209;BME280;6167;43.080;25.634;2023-08-01T19:31:02;98752.28;;;26.43;100.00
12209;BME280;6167;43.080;25.634;2023-08-01T19:33:35;98749.47;;;26.51;100.00
12209;BME280;6167;43.080;25.634;2023-08-01T19:36:07;98757.03;;;26.41;100.00
12209;BME280;6167;43.080;25.634;2023-08-01T19:38:36;98756.94;;;26.20;100.00
12209;BME280;6167;43.080;25.634;2023-08-01T19:41:03;98761.75;;;26.32;100.00
12209;BME280;6167;43.080;25.634;2023-08-01T19:43:31;98753.50;;;26.11;100.00
12209;BME280;6167;43.080;25.634;2023-08-01T19:45:59;98760.25;;;26.30;100.00
12209;BME280;6167;43.080;25.634;2023-08-01T19:48:26;98749.59;;;26.14;100.00
12209;BME280;6167;43.080;25.634;2023-08-01T19:50:53;98749.84;;;26.04;100.00
12209;BME280;6167;43.080;25.634;2023-08-01T19:53:21;98753.50;;;26.11;100.00
12209;BME280;6167;43.080;25.634;2023-08-01T19:55:51;98744.56;;;25.96;100.00
12209;BME280;6167;43.080;25.634;2023-08-01T19:58:18;98740.81;;;25.97;100.00
12209;BME280;6167;43.080;25.634;2023-08-01T20:00:45;98753.88;;;25.93;100.00
12209;BME280;6167;43.080;25.634;2023-08-01T20:03:14;98747.16;;;25.89;100.00
12209;BME280;6167;43.080;25.634;2023-08-01T20:05:41;98745.56;;;25.95;100.00
12209;BME280;6167;43.080;25.634;2023-08-01T20:08:08;98749.38;;;25.71;100.00
12209;BME280;6167;43.080;25.634;2023-08-01T20:10:35;98750.22;;;25.86;100.00
12209;BME280;6167;43.080;25.634;2023-08-01T20:13:05;98742.41;;;25.91;100.00
12209;BME280;6167;43.080;25.634;2023-08-01T20:15:32;98747.41;;;25.80;100.00
12209;BME280;6167;43.080;25.634;2023-08-01T20:17:59;98745.66;;;25.87;100.00
12209;BME280;6167;43.080;25.634;2023-08-01T20:20:27;98749.44;;;25.63;100.00
12209;BME280;6167;43.080;25.634;2023-08-01T20:22:54;98732.97;;;25.73;100.00
12209;BME280;6167;43.080;25.634;2023-08-01T20:25:21;98738.78;;;25.61;100.00
12209;BME280;6167;43.080;25.634;2023-08-01T20:27:48;98742.66;;;25.67;100.00
12209;BME280;6167;43.080;25.634;2023-08-01T20:30:16;98739.69;;;25.77;100.00
12209;BME280;6167;43.080;25.634;2023-08-01T20:32:44;98745.91;;;25.62;100.00
12209;BME280;6167;43.080;25.634;2023-08-01T20:35:12;98741.91;;;25.73;100.00
12209;BME280;6167;43.080;25.634;2023-08-01T20:37:39;98726.00;;;25.55;100.00
12209;BME280;6167;43.080;25.634;2023-08-01T20:40:08;98738.63;;;25.40;100.00
12209;BME280;6167;43.080;25.634;2023-08-01T20:42:36;98740.44;;;25.48;100.00
12209;BME280;6167;43.080;25.634;2023-08-01T20:45:05;98748.22;;;25.28;100.00
12209;BME280;6167;43.080;25.634;2023-08-01T20:47:35;98732.69;;;25.45;100.00
12209;BME280;6167;43.080;25.634;2023-08-01T20:50:04;98733.22;;;25.40;100.00
12209;BME280;6167;43.080;25.634;2023-08-01T20:52:31;98732.38;;;25.02;100.00
12209;BME280;6167;43.080;25.634;2023-08-01T20:55:00;98736.75;;;25.03;100.00
12209;BME280;6167;43.080;25.634;2023-08-01T20:57:28;98740.34;;;25.18;100.00
12209;BME280;6167;43.080;25.634;2023-08-01T20:59:55;98730.94;;;25.14;100.00
12209;BME280;6167;43.080;25.634;2023-08-01T21:02:22;98746.78;;;25.17;100.00
12209;BME280;6167;43.080;25.634;2023-08-01T21:04:50;98746.31;;;25.14;100.00
12209;BME280;6167;43.080;25.634;2023-08-01T21:07:20;98742.97;;;25.12;100.00
12209;BME280;6167;43.080;25.634;2023-08-01T21:09:47;98740.94;;;24.83;100.00
12209;BME280;6167;43.080;25.634;2023-08-01T21:12:14;98753.06;;;24.87;100.00
12209;BME280;6167;43.080;25.634;2023-08-01T21:14:41;98746.59;;;24.96;100.00
12209;BME280;6167;43.080;25.634;2023-08-01T21:17:08;98753.03;;;24.95;100.00
12209;BME280;6167;43.080;25.634;2023-08-01T21:19:36;98763.13;;;25.01;100.00
12209;BME280;6167;43.080;25.634;2023-08-01T21:22:05;98758.16;;;24.82;100.00
12209;BME280;6167;43.080;25.634;2023-08-01T21:24:32;98763.00;;;24.94;100.00
12209;BME280;6167;43.080;25.634;2023-08-01T21:27:00;98763.44;;;24.75;100.00
12209;BME280;6167;43.080;25.634;2023-08-01T21:29:27;98762.03;;;24.87;100.00
12209;BME280;6167;43.080;25.634;2023-08-01T21:31:54;98768.97;;;24.82;100.00
12209;BME280;6167;43.080;25.634;2023-08-01T21:34:21;98754.13;;;24.78;100.00
12209;BME280;6167;43.080;25.634;2023-08-01T21:36:48;98753.59;;;24.82;100.00
12209;BME280;6167;43.080;25.634;2023-08-01T21:39:16;98752.44;;;24.77;100.00
12209;BME280;6167;43.080;25.634;2023-08-01T21:41:43;98752.53;;;24.69;100.00
12209;BME280;6167;43.080;25.634;2023-08-01T21:44:10;98757.47;;;24.57;100.00
12209;BME280;6167;43.080;25.634;2023-08-01T21:46:37;98756.22;;;24.37;100.00
12209;BME280;6167;43.080;25.634;2023-08-01T21:49:04;98754.03;;;24.32;100.00
12209;BME280;6167;43.080;25.634;2023-08-01T21:51:30;98742.97;;;24.11;100.00
12209;BME280;6167;43.080;25.634;2023-08-01T21:53:57;98752.38;;;24.31;100.00
12209;BME280;6167;43.080;25.634;2023-08-01T21:56:26;98755.44;;;24.28;100.00
12209;BME280;6167;43.080;25.634;2023-08-01T21:58:53;98751.34;;;24.32;100.00
12209;BME280;6167;43.080;25.634;2023-08-01T22:01:19;98740.47;;;24.01;100.00
12209;BME280;6167;43.080;25.634;2023-08-01T22:03:46;98727.38;;;23.82;100.00
12209;BME280;6167;43.080;25.634;2023-08-01T22:06:14;98727.19;;;23.83;100.00
12209;BME280;6167;43.080;25.634;2023-08-01T22:08:47;58106.44;;;-142.66;100.00
12209;BME280;6167;43.080;25.634;2023-08-01T22:11:14;58106.44;;;-142.66;100.00
12209;BME280;6167;43.080;25.634;2023-08-01T22:13:44;58106.44;;;-142.66;100.00
12209;BME280;6167;43.080;25.634;2023-08-01T22:16:11;58106.44;;;-142.66;100.00
12209;BME280;6167;43.080;25.634;2023-08-01T22:18:38;58106.44;;;-142.66;100.00
12209;BME280;6167;43.080;25.634;2023-08-01T22:21:05;58106.44;;;-142.66;100.00
12209;BME280;6167;43.080;25.634;2023-08-01T22:23:32;58106.44;;;-142.66;100.00
12209;BME280;6167;43.080;25.634;2023-08-01T22:25:59;58106.44;;;-142.66;100.00
12209;BME280;6167;43.080;25.634;2023-08-01T22:28:29;58106.44;;;-142.66;100.00
12209;BME280;6167;43.080;25.634;2023-08-01T22:31:00;58106.44;;;-142.66;100.00
12209;BME280;6167;43.080;25.634;2023-08-01T22:33:27;58106.44;;;-142.66;100.00
12209;BME280;6167;43.080;25.634;2023-08-01T22:35:54;58106.44;;;-142.66;100.00
12209;BME280;6167;43.080;25.634;2023-08-01T22:38:22;58106.44;;;-142.66;100.00
12209;BME280;6167;43.080;25.634;2023-08-01T22:40:49;58106.44;;;-142.66;100.00
12209;BME280;6167;43.080;25.634;2023-08-01T22:43:16;58106.44;;;-142.66;100.00
12209;BME280;6167;43.080;25.634;2023-08-01T22:45:43;58106.44;;;-142.66;100.00
12209;BME280;6167;43.080;25.634;2023-08-01T22:48:11;58106.44;;;-142.66;100.00
12209;BME280;6167;43.080;25.634;2023-08-01T22:50:38;58106.44;;;-142.66;100.00
12209;BME280;6167;43.080;25.634;2023-08-01T22:53:05;58106.44;;;-142.66;100.00
12209;BME280;6167;43.080;25.634;2023-08-01T22:55:33;58106.44;;;-142.66;100.00
12209;BME280;6167;43.080;25.634;2023-08-01T22:58:02;58106.44;;;-142.66;100.00
12209;BME280;6167;43.080;25.634;2023-08-01T23:00:29;58106.44;;;-142.66;100.00
12209;BME280;6167;43.080;25.634;2023-08-01T23:02:56;58106.44;;;-142.66;100.00
12209;BME280;6167;43.080;25.634;2023-08-01T23:05:24;58106.44;;;-142.66;100.00
12209;BME280;6167;43.080;25.634;2023-08-01T23:07:51;58106.44;;;-142.66;100.00
12209;BME280;6167;43.080;25.634;2023-08-01T23:10:20;58106.44;;;-142.66;100.00
12209;BME280;6167;43.080;25.634;2023-08-01T23:12:47;58106.44;;;-142.66;100.00
12209;BME280;6167;43.080;25.634;2023-08-01T23:15:17;58106.44;;;-142.66;100.00
12209;BME280;6167;43.080;25.634;2023-08-01T23:17:44;58106.44;;;-142.66;100.00
12209;BME280;6167;43.080;25.634;2023-08-01T23:20:11;58106.44;;;-142.66;100.00
12209;BME280;6167;43.080;25.634;2023-08-01T23:22:40;58106.44;;;-142.66;100.00
12209;BME280;6167;43.080;25.634;2023-08-01T23:25:07;58106.44;;;-142.66;100.00
12209;BME280;6167;43.080;25.634;2023-08-01T23:27:34;58106.44;;;-142.66;100.00
12209;BME280;6167;43.080;25.634;2023-08-01T23:30:02;58106.44;;;-142.66;100.00
12209;BME280;6167;43.080;25.634;2023-08-01T23:32:30;58106.44;;;-142.66;100.00
12209;BME280;6167;43.080;25.634;2023-08-01T23:34:57;58106.44;;;-142.66;100.00
12209;BME280;6167;43.080;25.634;2023-08-01T23:37:24;58106.44;;;-142.66;100.00
12209;BME280;6167;43.080;25.634;2023-08-01T23:39:52;58106.44;;;-142.66;100.00
12209;BME280;6167;43.080;25.634;2023-08-01T23:42:19;58106.44;;;-142.66;100.00
12209;BME280;6167;43.080;25.634;2023-08-01T23:44:46;58106.44;;;-142.66;100.00
12209;BME280;6167;43.080;25.634;2023-08-01T23:47:13;58106.44;;;-142.66;100.00
12209;BME280;6167;43.080;25.634;2023-08-01T23:49:40;58106.44;;;-142.66;100.00
12209;BME280;6167;43.080;25.634;2023-08-01T23:52:07;58106.44;;;-142.66;100.00
12209;BME280;6167;43.080;25.634;2023-08-01T23:54:34;58106.44;;;-142.66;100.00
12209;BME280;6167;43.080;25.634;2023-08-01T23:57:03;58106.44;;;-142.66;100.00
12209;BME280;6167;43.080;25.634;2023-08-01T23:59:31;58106.44;;;-142.66;100.00
